Time;durP1;ratioP1;P1;durP2;ratioP2;P2;SDS_P1;SDS_P2;PMS_P1;PMS_P2;Temp;Humidity;BMP_temperature;BMP_pressure;BME280_temperature;BME280_humidity;BME280_pressure;Samples;Min_cycle;Max_cycle;Signal;HPM_P1;HPM_P2
2022/11/28 00:01:34;;;;;;;6.10;4.68;;;6.00;99.90;;;;;;5052408;28;20103;-76
2022/11/28 00:04:00;;;;;;;7.45;4.80;;;6.10;99.90;;;;;;5051114;28;20068;-76
2022/11/28 00:06:27;;;;;;;6.68;4.85;;;6.10;99.90;;;;;;5049761;28;20076;-76
2022/11/28 00:08:53;;;;;;;6.85;5.45;;;5.90;99.90;;;;;;5055298;28;20547;-76
2022/11/28 00:11:19;;;;;;;6.45;4.97;;;6.10;99.90;;;;;;5045249;28;20095;-76
2022/11/28 00:13:45;;;;;;;6.65;5.45;;;6.10;99.90;;;;;;5066568;28;20048;-76
2022/11/28 00:16:22;;;;;;;6.68;5.07;;;6.10;99.90;;;;;;5051730;28;20508;-75
2022/11/28 00:18:54;;;;;;;6.50;5.07;;;6.10;99.90;;;;;;5051839;28;20033;-76
2022/11/28 00:21:20;;;;;;;5.13;4.53;;;6.00;99.90;;;;;;5050651;28;20041;-76
2022/11/28 00:23:47;;;;;;;6.20;4.35;;;5.90;99.90;;;;;;5050036;28;20135;-76
2022/11/28 00:26:29;;;;;;;5.47;4.22;;;6.10;99.90;;;;;;5051494;28;20551;-76
2022/11/28 00:28:56;;;;;;;5.95;4.28;;;6.10;99.90;;;;;;5054169;28;20064;-74
2022/11/28 00:31:25;;;;;;;5.50;4.38;;;6.10;99.90;;;;;;5060315;28;20048;-76
2022/11/28 00:33:51;;;;;;;5.63;3.80;;;6.10;99.90;;;;;;5057537;28;20495;-76
2022/11/28 00:36:18;;;;;;;5.80;4.32;;;6.10;99.90;;;;;;5061992;28;20032;-76
2022/11/28 00:38:43;;;;;;;;;;;5.90;99.90;;;;;;5060829;28;20642;-76
2022/11/28 00:41:15;;;;;;;6.00;4.13;;;5.90;99.90;;;;;;5050400;28;20003;-76
2022/11/28 00:43:42;;;;;;;6.35;4.55;;;5.90;99.90;;;;;;5054931;28;20098;-77
2022/11/28 00:46:08;;;;;;;5.47;4.40;;;6.00;99.90;;;;;;5049700;28;20588;-76
2022/11/28 00:48:34;;;;;;;6.60;4.20;;;6.00;99.90;;;;;;5061561;28;20110;-76
2022/11/28 00:51:09;;;;;;;4.28;3.60;;;6.10;99.90;;;;;;5032612;28;20044;-76
2022/11/28 00:53:36;;;;;;;4.25;3.70;;;6.10;99.90;;;;;;5063394;28;20103;-76
2022/11/28 00:56:05;;;;;;;4.32;3.50;;;6.10;99.90;;;;;;5069501;28;20076;-76
2022/11/28 00:58:32;;;;;;;3.78;3.38;;;6.00;99.90;;;;;;5069665;28;20055;-76
2022/11/28 01:00:59;;;;;;;4.95;3.85;;;6.10;99.90;;;;;;5060336;28;20041;-74
2022/11/28 01:03:24;;;;;;;5.60;4.20;;;6.00;99.90;;;;;;5033230;28;20180;-75
2022/11/28 01:05:50;;;;;;;6.25;3.95;;;6.10;99.90;;;;;;5058781;28;20220;-76
2022/11/28 01:08:16;;;;;;;3.80;3.17;;;6.10;99.90;;;;;;5069252;28;20115;-74
2022/11/28 01:10:44;;;;;;;4.55;3.42;;;6.20;99.90;;;;;;5069006;28;20067;-75
2022/11/28 01:13:10;;;;;;;6.10;4.53;;;6.00;99.90;;;;;;5052564;28;20376;-75
2022/11/28 01:15:39;;;;;;;;;;;6.10;99.90;;;;;;5036313;28;20075;-75
2022/11/28 01:18:04;;;;;;;6.78;4.88;;;6.20;99.90;;;;;;5068930;28;19920;-75
2022/11/28 01:20:30;;;;;;;5.60;4.28;;;6.20;99.90;;;;;;5067252;28;20071;-75
2022/11/28 01:22:56;;;;;;;4.05;3.47;;;6.20;99.90;;;;;;5049201;28;20045;-75
2022/11/28 01:25:22;;;;;;;4.95;3.70;;;6.10;99.90;;;;;;5081087;28;20040;-76
2022/11/28 01:27:47;;;;;;;5.45;3.50;;;6.10;99.90;;;;;;5052710;28;20044;-75
2022/11/28 01:30:13;;;;;;;4.93;3.75;;;6.20;99.90;;;;;;5052117;28;20495;-75
2022/11/28 01:32:39;;;;;;;6.38;4.20;;;6.10;99.90;;;;;;5035304;28;20128;-75
2022/11/28 01:35:05;;;;;;;9.57;4.75;;;6.10;99.90;;;;;;5069031;28;20053;-76
2022/11/28 01:37:30;;;;;;;4.78;3.50;;;6.20;99.90;;;;;;5066958;28;20381;-75
2022/11/28 01:39:56;;;;;;;4.40;3.17;;;6.30;99.90;;;;;;5048883;28;20119;-76
2022/11/28 01:42:22;;;;;;;4.32;3.60;;;6.20;99.90;;;;;;5065376;28;20053;-75
2022/11/28 01:44:47;;;;;;;6.10;4.53;;;6.20;99.90;;;;;;5032536;28;20049;-76
2022/11/28 01:47:16;;;;;;;4.43;3.93;;;6.20;99.90;;;;;;5048648;28;20512;-75
2022/11/28 01:49:44;;;;;;;5.72;4.45;;;6.40;99.90;;;;;;5052070;28;20299;-75
2022/11/28 01:52:14;;;;;;;6.88;4.57;;;6.30;99.90;;;;;;5033744;28;20098;-75
2022/11/28 01:54:43;;;;;;;4.80;4.10;;;6.40;99.90;;;;;;5060128;28;20044;-75
2022/11/28 01:57:14;;;;;;;5.10;4.22;;;6.40;99.90;;;;;;5055997;28;20528;-75
2022/11/28 02:00:02;;;;;;;5.53;4.10;;;6.20;99.90;;;;;;5061178;28;20060;-75
2022/11/28 02:02:37;;;;;;;5.47;4.53;;;6.20;99.90;;;;;;5034258;28;20063;-75
2022/11/28 02:05:03;;;;;;;5.82;4.65;;;6.30;99.90;;;;;;5068633;28;20551;-75
2022/11/28 02:07:29;;;;;;;;;;;6.40;99.90;;;;;;5036476;28;20080;-75
2022/11/28 02:09:55;;;;;;;5.53;4.03;;;6.20;99.90;;;;;;5063963;28;20377;-75
2022/11/28 02:12:55;;;;;;;5.38;4.10;;;6.30;99.90;;;;;;5067109;28;20038;-75
2022/11/28 02:16:05;;;;;;;7.35;5.15;;;6.30;99.90;;;;;;5071064;28;20044;-75
2022/11/28 02:19:04;;;;;;;8.63;5.57;;;6.40;99.90;;;;;;4993519;28;20050;-76
2022/11/28 02:21:37;;;;;;;6.82;5.38;;;6.40;99.90;;;;;;5064055;28;20037;-75
2022/11/28 02:24:08;;;;;;;7.22;5.13;;;6.20;99.90;;;;;;5071786;28;20049;-75
2022/11/28 02:27:02;;;;;;;8.73;4.70;;;6.40;99.90;;;;;;5040805;28;20053;-75
2022/11/28 02:29:31;;;;;;;5.72;4.30;;;6.30;99.90;;;;;;5051555;28;20056;-75
2022/11/28 02:32:13;;;;;;;4.43;3.90;;;6.30;99.90;;;;;;5052511;28;20068;-75
2022/11/28 02:35:06;;;;;;;5.82;4.70;;;6.30;99.90;;;;;;5067063;28;20533;-74
2022/11/28 02:37:38;;;;;;;6.47;4.72;;;6.20;99.90;;;;;;5035868;28;20112;-75
2022/11/28 02:40:14;;;;;;;5.07;4.47;;;6.30;99.90;;;;;;5060965;28;20127;-74
2022/11/28 02:42:52;;;;;;;5.40;4.65;;;6.40;99.90;;;;;;5052488;28;20060;-74
2022/11/28 02:45:50;;;;;;;5.18;4.28;;;6.30;99.90;;;;;;5051970;28;20090;-74
2022/11/28 02:48:29;;;;;;;5.55;4.50;;;6.40;99.90;;;;;;5038316;28;20056;-75
2022/11/28 02:51:20;;;;;;;5.57;4.97;;;6.50;99.90;;;;;;5071361;28;20062;-75
2022/11/28 02:53:48;;;;;;;5.72;4.88;;;6.50;99.90;;;;;;5065617;28;20056;-75
2022/11/28 02:56:14;;;;;;;4.85;4.25;;;6.50;99.90;;;;;;5051735;28;20496;-75
2022/11/28 02:58:39;;;;;;;7.50;5.28;;;6.50;99.90;;;;;;5061219;28;20116;-76
2022/11/28 03:01:11;;;;;;;6.78;5.30;;;6.20;99.90;;;;;;5082004;28;20040;-75
2022/11/28 03:04:04;;;;;;;6.78;5.82;;;6.40;99.90;;;;;;5065219;28;20041;-75
2022/11/28 03:06:42;;;;;;;6.25;5.53;;;6.50;99.90;;;;;;5054463;28;20048;-75
2022/11/28 03:09:32;;;;;;;7.45;5.70;;;6.20;99.90;;;;;;5060747;28;20468;-75
2022/11/28 03:12:06;;;;;;;7.20;5.30;;;6.50;99.90;;;;;;5034502;28;20041;-76
2022/11/28 03:14:59;;;;;;;7.15;5.93;;;6.50;99.90;;;;;;5053280;28;20045;-76
2022/11/28 03:17:46;;;;;;;7.05;5.65;;;6.50;99.90;;;;;;5063264;28;20139;-75
2022/11/28 03:20:31;;;;;;;;;;;6.30;99.90;;;;;;5052267;28;20060;-75
2022/11/28 03:23:12;;;;;;;5.68;5.00;;;6.50;99.90;;;;;;5050557;28;20659;-75
2022/11/28 03:25:46;;;;;;;7.22;5.35;;;6.50;99.90;;;;;;5051563;28;20095;-75
2022/11/28 03:28:15;;;;;;;7.80;5.53;;;6.30;99.90;;;;;;5053409;28;20102;-75
2022/11/28 03:30:49;;;;;;;6.40;5.50;;;6.60;99.90;;;;;;5065495;28;20631;-75
2022/11/28 03:33:16;;;;;;;6.60;5.60;;;6.50;99.90;;;;;;5051493;28;20040;-75
2022/11/28 03:35:48;;;;;;;7.05;5.95;;;6.40;99.90;;;;;;5063839;28;20041;-75
2022/11/28 03:38:23;;;;;;;5.82;4.95;;;6.20;99.90;;;;;;5052502;28;20732;-75
2022/11/28 03:40:53;;;;;;;7.53;5.63;;;6.40;99.90;;;;;;5070595;28;20105;-76
2022/11/28 03:43:24;;;;;;;6.85;5.28;;;6.30;99.90;;;;;;5052844;28;20055;-76
2022/11/28 03:45:54;;;;;;;6.03;5.40;;;6.60;99.90;;;;;;5070423;28;20048;-75
2022/11/28 03:48:25;;;;;;;6.97;6.13;;;6.20;99.90;;;;;;5044335;28;20049;-75
2022/11/28 03:51:07;;;;;;;6.40;5.40;;;6.70;99.90;;;;;;5070373;28;20056;-75
2022/11/28 03:53:54;;;;;;;7.03;6.30;;;6.70;99.90;;;;;;5063627;28;20079;-75
2022/11/28 03:56:23;;;;;;;6.88;5.25;;;6.30;99.90;;;;;;5051793;28;20521;-75
2022/11/28 03:58:59;;;;;;;4.40;4.00;;;6.50;99.90;;;;;;5050249;28;20056;-75
2022/11/28 04:01:35;;;;;;;5.43;4.93;;;6.30;99.90;;;;;;5051221;28;20480;-74
2022/11/28 04:04:06;;;;;;;5.13;4.57;;;6.40;99.90;;;;;;5056857;28;20392;-75
2022/11/28 04:06:57;;;;;;;7.15;6.00;;;6.50;99.90;;;;;;5050418;28;20488;-74
2022/11/28 04:09:46;;;;;;;5.15;4.65;;;6.80;99.90;;;;;;5032983;28;20036;-74
2022/11/28 04:12:36;;;;;;;6.50;4.82;;;6.40;99.90;;;;;;5050547;28;20083;-74
2022/11/28 04:15:51;;;;;;;6.20;5.60;;;6.40;99.90;;;;;;5065173;28;20047;-74
2022/11/28 04:18:25;;;;;;;6.78;5.93;;;6.40;99.90;;;;;;5055438;28;20052;-75
2022/11/28 04:21:17;;;;;;;5.95;5.32;;;6.50;99.90;;;;;;5062688;28;20104;-75
2022/11/28 04:23:45;;;;;;;6.82;5.70;;;6.50;99.90;;;;;;5065553;28;20445;-74
2022/11/28 04:26:19;;;;;;;6.10;5.18;;;6.90;99.90;;;;;;5049385;28;20033;-76
2022/11/28 04:28:48;;;;;;;7.70;6.13;;;6.90;99.90;;;;;;5055354;28;20424;-75
2022/11/28 04:31:16;;;;;;;6.90;6.20;;;6.90;99.90;;;;;;5061946;28;20370;-75
2022/11/28 04:33:47;;;;;;;7.10;6.40;;;7.00;99.90;;;;;;5051841;28;20056;-75
2022/11/28 04:36:17;;;;;;;6.82;6.05;;;6.70;99.90;;;;;;5049790;28;20076;-75
2022/11/28 04:38:53;;;;;;;6.30;5.70;;;7.10;99.90;;;;;;5049945;28;20048;-75
2022/11/28 04:41:30;;;;;;;6.28;5.50;;;6.90;99.90;;;;;;5060815;28;20052;-75
2022/11/28 04:44:14;;;;;;;8.10;6.90;;;6.70;99.90;;;;;;5051029;28;20052;-75
2022/11/28 04:46:46;;;;;;;8.57;7.55;;;6.70;99.90;;;;;;5048620;28;20526;-75
2022/11/28 04:49:12;;;;;;;7.47;6.70;;;7.20;99.90;;;;;;5066902;28;20044;-75
2022/11/28 04:51:45;;;;;;;7.80;6.43;;;7.10;99.90;;;;;;5067637;28;20045;-75
2022/11/28 04:54:17;;;;;;;6.78;6.07;;;6.70;99.90;;;;;;5053581;28;20037;-75
2022/11/28 04:57:08;;;;;;;8.35;6.38;;;6.90;99.90;;;;;;5066058;28;20041;-75
2022/11/28 04:59:34;;;;;;;9.15;7.70;;;7.30;99.90;;;;;;5066433;28;20455;-76
2022/11/28 05:02:04;;;;;;;8.93;7.97;;;6.90;99.90;;;;;;5063034;28;20086;-76
2022/11/28 05:04:33;;;;;;;8.48;7.43;;;7.30;99.90;;;;;;5066080;28;20104;-77
2022/11/28 05:07:04;;;;;;;7.18;6.47;;;6.90;99.90;;;;;;5033142;28;20033;-76
2022/11/28 05:09:30;;;;;;;7.70;6.65;;;7.20;99.90;;;;;;5066776;28;20052;-76
2022/11/28 05:11:56;;;;;;;9.32;7.60;;;7.20;99.90;;;;;;5056777;28;20358;-76
2022/11/28 05:14:22;;;;;;;7.97;7.18;;;7.40;99.90;;;;;;5062487;28;20089;-76
2022/11/28 05:16:48;;;;;;;8.07;6.63;;;7.20;99.90;;;;;;5060226;28;20037;-76
2022/11/28 05:19:14;;;;;;;6.88;6.18;;;7.00;99.90;;;;;;5062580;28;20064;-76
2022/11/28 05:21:40;;;;;;;;;;;7.40;99.90;;;;;;5056194;28;20052;-75
2022/11/28 05:24:06;;;;;;;6.82;6.10;;;7.00;99.90;;;;;;5056452;28;20245;-74
2022/11/28 05:26:34;;;;;;;9.20;8.20;;;7.30;99.90;;;;;;5068598;28;20151;-74
2022/11/28 05:29:00;;;;;;;7.72;6.90;;;7.10;99.90;;;;;;5066680;28;20048;-75
2022/11/28 05:31:27;;;;;;;9.88;7.47;;;7.20;99.90;;;;;;5038343;28;20127;-75
2022/11/28 05:33:53;;;;;;;;;;;7.60;99.90;;;;;;5063637;28;20037;-75
2022/11/28 05:36:18;;;;;;;9.27;7.82;;;7.00;99.90;;;;;;5058975;28;19917;-75
2022/11/28 05:38:44;;;;;;;8.57;7.35;;;7.60;99.90;;;;;;5043891;28;20056;-75
2022/11/28 05:41:18;;;;;;;7.30;6.60;;;7.10;99.90;;;;;;5058991;28;20055;-75
2022/11/28 05:43:44;;;;;;;7.60;6.80;;;7.20;99.90;;;;;;5056908;28;20080;-76
2022/11/28 05:46:10;;;;;;;6.68;5.97;;;7.70;99.90;;;;;;5059798;28;20132;-75
2022/11/28 05:48:35;;;;;;;6.80;5.68;;;7.10;99.90;;;;;;5074382;28;20071;-75
2022/11/28 05:51:03;;;;;;;7.18;6.35;;;7.40;99.90;;;;;;5043798;28;20036;-76
2022/11/28 05:53:29;;;;;;;7.93;6.82;;;7.20;99.90;;;;;;5064129;28;20127;-75
2022/11/28 05:55:55;;;;;;;7.28;6.57;;;7.70;99.90;;;;;;5053657;28;20140;-76
2022/11/28 05:58:21;;;;;;;8.07;6.55;;;7.70;99.90;;;;;;5054137;28;20036;-76
2022/11/28 06:00:46;;;;;;;7.60;6.70;;;7.60;99.90;;;;;;5038608;28;20045;-76
2022/11/28 06:03:12;;;;;;;7.63;6.88;;;7.20;99.90;;;;;;5053088;28;20053;-75
2022/11/28 06:05:40;;;;;;;8.13;6.80;;;7.20;99.90;;;;;;5051251;28;20075;-76
2022/11/28 06:08:06;;;;;;;8.35;6.95;;;7.70;99.90;;;;;;5052319;28;20049;-75
2022/11/28 06:10:32;;;;;;;6.15;5.55;;;7.80;99.90;;;;;;5055752;28;20385;-75
2022/11/28 06:12:58;;;;;;;7.60;6.80;;;7.70;99.90;;;;;;5052591;28;20444;-75
2022/11/28 06:15:23;;;;;;;9.98;8.00;;;7.80;99.90;;;;;;5056883;28;20041;-76
2022/11/28 06:17:49;;;;;;;8.00;6.80;;;7.70;99.90;;;;;;5062895;28;20043;-75
2022/11/28 06:20:15;;;;;;;8.77;7.32;;;7.80;99.90;;;;;;5056942;28;20048;-75
2022/11/28 06:22:40;;;;;;;7.72;6.93;;;7.70;99.90;;;;;;5045915;28;20107;-75
2022/11/28 06:25:06;;;;;;;8.25;7.20;;;7.70;99.90;;;;;;5061493;28;20075;-75
2022/11/28 06:27:34;;;;;;;9.07;7.28;;;7.80;99.90;;;;;;5042293;28;20052;-76
2022/11/28 06:29:59;;;;;;;8.10;7.10;;;7.80;99.90;;;;;;5061495;28;20475;-75
2022/11/28 06:32:25;;;;;;;7.85;6.75;;;7.50;99.90;;;;;;5056448;28;20109;-75
2022/11/28 06:34:51;;;;;;;9.80;7.68;;;7.80;99.90;;;;;;5037221;28;20064;-75
2022/11/28 06:37:16;;;;;;;8.75;7.80;;;7.50;99.90;;;;;;5036439;28;20516;-76
2022/11/28 06:39:42;;;;;;;9.00;8.10;;;7.30;99.90;;;;;;5077969;28;20045;-75
2022/11/28 06:42:08;;;;;;;8.20;6.78;;;7.50;99.90;;;;;;5078419;28;20037;-70
2022/11/28 06:44:34;;;;;;;8.23;7.13;;;7.60;99.90;;;;;;5053060;28;20147;-70
2022/11/28 06:46:59;;;;;;;8.90;7.10;;;7.80;99.90;;;;;;5001834;28;20051;-70
2022/11/28 06:49:25;;;;;;;7.47;6.70;;;7.40;99.90;;;;;;5038072;28;20033;-69
2022/11/28 06:51:50;;;;;;;7.85;6.65;;;7.50;99.90;;;;;;5053016;28;20151;-69
2022/11/28 06:54:16;;;;;;;7.65;6.47;;;7.50;99.90;;;;;;5050306;28;20044;-70
2022/11/28 06:56:42;;;;;;;8.98;7.05;;;7.70;99.90;;;;;;5055651;28;20041;-70
2022/11/28 06:59:10;;;;;;;9.88;7.82;;;7.60;99.90;;;;;;5053395;28;20055;-70
2022/11/28 07:01:36;;;;;;;8.77;6.68;;;7.40;99.90;;;;;;5049703;28;20097;-70
2022/11/28 07:04:02;;;;;;;6.72;5.95;;;7.40;99.90;;;;;;5050060;28;20057;-70
2022/11/28 07:06:28;;;;;;;6.50;5.15;;;7.90;99.90;;;;;;5033428;28;20044;-69
2022/11/28 07:08:56;;;;;;;6.30;5.20;;;7.90;99.90;;;;;;5049999;28;20055;-70
2022/11/28 07:11:28;;;;;;;6.07;5.10;;;7.40;99.90;;;;;;5051201;28;20047;-70
2022/11/28 07:13:55;;;;;;;6.03;5.07;;;7.90;99.90;;;;;;5050242;28;20041;-70
2022/11/28 07:16:24;;;;;;;5.97;4.75;;;7.40;99.90;;;;;;5050040;28;20190;-70
2022/11/28 07:18:51;;;;;;;6.22;5.63;;;7.40;99.90;;;;;;5050085;28;20117;-69
2022/11/28 07:21:18;;;;;;;5.47;4.80;;;7.90;99.90;;;;;;5050173;28;20049;-69
2022/11/28 07:23:43;;;;;;;;;;;7.50;99.90;;;;;;5050381;28;20391;-69
2022/11/28 07:26:11;;;;;;;5.85;5.18;;;8.00;99.90;;;;;;5049489;28;19921;-69
2022/11/28 07:28:37;;;;;;;5.88;4.82;;;7.70;99.90;;;;;;5049865;28;20130;-70
2022/11/28 07:31:16;;;;;;;5.80;4.95;;;8.00;99.90;;;;;;5049645;28;20064;-69
2022/11/28 07:33:42;;;;;;;8.18;5.45;;;7.60;99.90;;;;;;5049965;28;20063;-69
2022/11/28 07:36:15;;;;;;;6.88;6.05;;;7.50;99.90;;;;;;5049381;28;20045;-70
2022/11/28 07:38:41;;;;;;;6.20;5.40;;;8.10;99.90;;;;;;5018311;28;1080304;-70
2022/11/28 07:41:09;;;;;;;5.38;4.88;;;8.00;99.90;;;;;;5070388;28;20070;-70
2022/11/28 07:43:35;;;;;;;5.82;4.75;;;7.80;99.90;;;;;;5070255;28;20090;-70
2022/11/28 07:46:06;;;;;;;5.20;4.68;;;7.40;99.90;;;;;;5053588;28;20084;-69
2022/11/28 07:48:33;;;;;;;4.78;4.28;;;8.00;99.90;;;;;;5036978;28;20127;-70
2022/11/28 07:50:58;;;;;;;5.47;4.90;;;7.90;99.90;;;;;;5069417;28;20114;-70
2022/11/28 07:53:24;;;;;;;5.20;4.25;;;7.80;99.90;;;;;;5070265;28;20476;-70
2022/11/28 07:55:50;;;;;;;5.05;4.55;;;7.60;99.90;;;;;;5070355;28;20045;-70
2022/11/28 07:58:15;;;;;;;4.97;4.47;;;7.90;99.90;;;;;;5070069;28;20132;-70
2022/11/28 08:00:41;;;;;;;5.07;4.05;;;7.40;99.90;;;;;;5053139;28;20128;-70
2022/11/28 08:03:07;;;;;;;6.30;4.85;;;7.40;99.90;;;;;;5069713;28;20055;-70
2022/11/28 08:05:33;;;;;;;5.45;4.75;;;8.10;99.90;;;;;;5053534;28;20044;-70
2022/11/28 08:07:59;;;;;;;6.22;4.13;;;7.40;99.90;;;;;;5053264;28;20123;-70
2022/11/28 08:10:24;;;;;;;5.40;4.80;;;8.10;99.90;;;;;;5069331;28;20052;-70
2022/11/28 08:12:50;;;;;;;5.45;4.70;;;7.60;99.90;;;;;;5069601;28;20040;-70
2022/11/28 08:15:16;;;;;;;5.57;5.00;;;8.00;99.90;;;;;;5069967;28;20048;-70
2022/11/28 08:17:41;;;;;;;5.47;4.85;;;8.10;99.90;;;;;;5053163;28;20043;-69
2022/11/28 08:20:08;;;;;;;7.32;5.35;;;7.50;99.90;;;;;;5069660;28;20142;-70
2022/11/28 08:22:33;;;;;;;5.30;4.72;;;8.10;99.90;;;;;;5069219;28;20084;-69
2022/11/28 08:24:59;;;;;;;6.07;4.90;;;7.50;99.90;;;;;;5069203;28;20044;-70
2022/11/28 08:27:25;;;;;;;5.82;5.22;;;7.50;99.90;;;;;;5069605;28;20059;-70
2022/11/28 08:29:51;;;;;;;6.88;6.18;;;8.00;99.90;;;;;;5069160;28;20040;-70
2022/11/28 08:32:17;;;;;;;6.18;5.50;;;7.50;99.90;;;;;;5069489;28;20040;-70
2022/11/28 08:34:43;;;;;;;6.78;6.00;;;8.10;99.90;;;;;;5069539;28;20501;-70
2022/11/28 08:37:08;;;;;;;5.72;4.60;;;8.20;99.90;;;;;;5068810;28;20160;-70
2022/11/28 08:39:34;;;;;;;4.63;3.95;;;7.90;99.90;;;;;;5069054;28;20075;-70
2022/11/28 08:41:59;;;;;;;4.43;4.00;;;7.40;99.90;;;;;;5069291;28;20128;-70
2022/11/28 08:44:26;;;;;;;6.18;5.18;;;7.90;99.90;;;;;;5069376;28;20048;-70
2022/11/28 08:46:53;;;;;;;5.30;4.28;;;7.70;99.90;;;;;;5069167;28;20101;-70
2022/11/28 08:49:19;;;;;;;;;;;7.80;99.90;;;;;;5069313;28;20460;-69
2022/11/28 08:51:45;;;;;;;5.35;4.85;;;7.70;99.90;;;;;;5052068;28;19935;-70
2022/11/28 08:54:10;;;;;;;4.97;4.47;;;7.60;99.90;;;;;;5069218;28;20044;-70
2022/11/28 08:56:36;;;;;;;6.57;4.57;;;8.10;99.90;;;;;;5052349;28;20395;-70
2022/11/28 08:59:02;;;;;;;5.32;4.57;;;8.10;99.90;;;;;;5069143;28;20037;-70
2022/11/28 09:01:28;;;;;;;5.43;4.75;;;8.10;99.90;;;;;;5068625;28;20056;-69
2022/11/28 09:03:54;;;;;;;5.03;4.18;;;8.20;99.90;;;;;;5052333;28;20444;-69
2022/11/28 09:06:21;;;;;;;4.93;3.90;;;7.50;99.90;;;;;;5052189;28;20143;-69
2022/11/28 09:08:48;;;;;;;5.15;4.50;;;8.20;99.90;;;;;;5069119;28;20140;-69
2022/11/28 09:11:16;;;;;;;4.07;3.50;;;8.10;99.90;;;;;;5068872;28;20040;-70
2022/11/28 09:13:43;;;;;;;3.67;3.10;;;8.20;99.90;;;;;;5052215;28;20045;-70
2022/11/28 09:16:08;;;;;;;;;;;7.60;99.90;;;;;;5069273;28;20044;-70
2022/11/28 09:18:34;;;;;;;3.67;3.20;;;7.70;99.90;;;;;;5070292;28;19920;-70
2022/11/28 09:21:03;;;;;;;4.22;3.45;;;8.10;99.90;;;;;;5068987;28;20052;-70
2022/11/28 09:23:29;;;;;;;3.92;3.08;;;8.30;99.90;;;;;;5069979;28;20511;-70
2022/11/28 09:25:56;;;;;;;3.78;3.35;;;8.20;99.90;;;;;;5068582;28;20045;-70
2022/11/28 09:28:22;;;;;;;4.45;3.67;;;8.10;99.90;;;;;;5052225;28;20047;-70
2022/11/28 09:30:48;;;;;;;4.93;3.35;;;7.60;99.90;;;;;;5068135;28;20048;-70
2022/11/28 09:33:14;;;;;;;3.67;3.13;;;8.20;99.90;;;;;;5069034;28;20040;-72
2022/11/28 09:35:40;;;;;;;2.78;2.50;;;8.10;99.90;;;;;;5068310;28;20041;-70
2022/11/28 09:38:06;;;;;;;3.72;2.97;;;8.20;99.90;;;;;;5068408;28;20064;-70
2022/11/28 09:40:38;;;;;;;3.30;2.85;;;7.80;99.90;;;;;;5068439;28;20044;-70
2022/11/28 09:43:14;;;;;;;3.30;2.60;;;7.70;99.90;;;;;;5068960;28;20063;-70
2022/11/28 09:45:41;;;;;;;3.60;3.00;;;7.60;99.90;;;;;;5068372;28;20555;-70
2022/11/28 09:48:16;;;;;;;;;;;7.70;99.90;;;;;;5052333;28;20080;-70
2022/11/28 09:50:42;;;;;;;3.42;2.90;;;7.80;99.90;;;;;;5068303;28;19974;-70
2022/11/28 09:53:55;;;;;;;2.95;2.58;;;8.00;99.90;;;;;;5051675;28;20511;-70
2022/11/28 09:56:21;;;;;;;2.60;2.40;;;7.80;99.90;;;;;;4975320;28;20085;-70
2022/11/28 09:58:52;;;;;;;2.17;1.98;;;7.70;99.90;;;;;;5058964;28;20565;-70
2022/11/28 10:01:21;;;;;;;2.67;2.40;;;7.70;99.90;;;;;;5068734;28;20163;-70
2022/11/28 10:04:05;;;;;;;2.30;2.10;;;7.90;99.90;;;;;;5068337;28;20076;-70
2022/11/28 10:06:59;;;;;;;2.38;2.17;;;7.80;99.90;;;;;;5051868;28;20203;-70
2022/11/28 10:09:43;;;;;;;2.83;2.20;;;8.40;99.90;;;;;;5068700;28;20451;-70
2022/11/28 10:12:21;;;;;;;2.25;2.05;;;8.10;99.90;;;;;;5068182;28;20503;-70
2022/11/28 10:15:14;;;;;;;2.80;2.40;;;7.70;99.90;;;;;;5054318;28;20040;-71
2022/11/28 10:18:01;;;;;;;2.50;2.30;;;8.20;99.90;;;;;;5055073;28;20045;-70
2022/11/28 10:20:31;;;;;;;2.47;2.28;;;8.20;99.90;;;;;;5071994;28;20036;-71
2022/11/28 10:23:26;;;;;;;2.30;2.10;;;8.50;99.90;;;;;;5071964;28;20032;-71
2022/11/28 10:26:16;;;;;;;2.85;2.17;;;8.30;99.90;;;;;;5071645;28;20114;-71
2022/11/28 10:28:47;;;;;;;2.58;2.20;;;8.50;99.90;;;;;;5073413;28;20093;-71
2022/11/28 10:31:33;;;;;;;2.03;1.83;;;7.90;99.90;;;;;;5071844;28;20427;-71
2022/11/28 10:34:08;;;;;;;1.80;1.60;;;8.50;99.90;;;;;;5071635;28;20048;-71
2022/11/28 10:36:51;;;;;;;2.28;1.80;;;8.50;99.90;;;;;;5054816;28;20132;-71
2022/11/28 10:39:17;;;;;;;2.40;2.20;;;8.50;99.90;;;;;;5071603;28;20056;-71
2022/11/28 10:42:13;;;;;;;3.20;2.83;;;7.90;99.90;;;;;;5071687;28;20044;-71
2022/11/28 10:44:54;;;;;;;2.78;2.25;;;7.90;99.90;;;;;;5055128;28;20437;-71
2022/11/28 10:47:44;;;;;;;3.40;2.15;;;8.00;99.90;;;;;;5073072;28;20380;-71
2022/11/28 10:50:32;;;;;;;2.38;2.08;;;8.20;99.90;;;;;;5055001;28;20182;-71
2022/11/28 10:53:20;;;;;;;2.85;2.55;;;8.20;99.90;;;;;;5071202;28;20388;-71
2022/11/28 10:55:45;;;;;;;;;;;8.00;99.90;;;;;;5073206;28;20043;-70
2022/11/28 10:58:30;;;;;;;2.78;2.40;;;7.90;99.90;;;;;;5054586;28;20300;-70
2022/11/28 11:00:57;;;;;;;2.38;2.17;;;8.20;99.90;;;;;;5034700;28;20053;-70
2022/11/28 11:03:31;;;;;;;2.40;2.03;;;8.00;99.90;;;;;;5051523;28;20134;-71
2022/11/28 11:05:58;;;;;;;2.20;1.90;;;8.40;99.90;;;;;;5034468;28;20127;-70
2022/11/28 11:08:27;;;;;;;1.95;1.50;;;8.30;99.90;;;;;;5051382;28;20072;-70
2022/11/28 11:11:04;;;;;;;2.15;1.90;;;8.10;99.90;;;;;;5050870;28;20072;-70
2022/11/28 11:13:33;;;;;;;2.78;2.22;;;8.10;99.90;;;;;;5050999;28;20484;-70
2022/11/28 11:16:00;;;;;;;3.15;2.50;;;8.50;99.90;;;;;;5050541;28;20652;-70
2022/11/28 11:18:39;;;;;;;2.63;2.10;;;8.10;99.90;;;;;;5050915;28;20045;-70
2022/11/28 11:21:20;;;;;;;2.75;1.98;;;8.60;99.90;;;;;;5050991;28;20099;-70
2022/11/28 11:23:47;;;;;;;2.63;2.10;;;8.80;99.90;;;;;;5050868;28;20791;-70
2022/11/28 11:26:26;;;;;;;3.72;2.40;;;8.30;99.90;;;;;;5049637;28;20049;-70
2022/11/28 11:28:52;;;;;;;2.08;1.88;;;8.70;99.90;;;;;;5050870;28;20047;-70
2022/11/28 11:31:18;;;;;;;;;;;8.20;99.90;;;;;;5051197;28;20124;-70
2022/11/28 11:33:44;;;;;;;2.30;2.10;;;8.70;99.90;;;;;;5052382;28;20342;-70
2022/11/28 11:36:27;;;;;;;2.17;1.83;;;8.30;99.90;;;;;;5034220;28;20135;-71
2022/11/28 11:39:04;;;;;;;2.95;2.38;;;8.30;99.90;;;;;;5051682;28;20428;-70
2022/11/28 11:41:31;;;;;;;2.85;2.00;;;8.30;99.90;;;;;;5033671;28;20510;-70
2022/11/28 11:44:17;;;;;;;2.40;2.10;;;8.70;99.90;;;;;;5050557;28;20049;-70
2022/11/28 11:46:54;;;;;;;1.92;1.73;;;8.40;99.90;;;;;;5051167;28;20045;-70
2022/11/28 11:49:38;;;;;;;2.03;1.77;;;9.10;99.90;;;;;;5049979;28;20571;-70
2022/11/28 11:52:12;;;;;;;1.60;1.40;;;9.10;99.90;;;;;;5049920;28;20048;-70
2022/11/28 11:54:58;;;;;;;1.70;1.58;;;9.10;99.90;;;;;;5049875;28;20084;-70
2022/11/28 11:57:32;;;;;;;2.13;1.80;;;9.10;99.90;;;;;;5029303;28;20488;-70
2022/11/28 12:00:13;;;;;;;1.67;1.40;;;8.50;99.90;;;;;;5033241;28;20036;-70
2022/11/28 12:02:44;;;;;;;1.20;1.10;;;8.50;99.90;;;;;;5050051;28;20080;-70
2022/11/28 12:05:17;;;;;;;2.13;1.90;;;9.20;99.90;;;;;;5049878;28;20173;-71
2022/11/28 12:07:54;;;;;;;2.10;1.70;;;8.60;99.90;;;;;;5049816;28;20350;-70
2022/11/28 12:10:22;;;;;;;2.13;1.80;;;8.60;99.90;;;;;;5049308;28;20057;-70
2022/11/28 12:12:48;;;;;;;2.30;2.05;;;8.60;99.90;;;;;;5049584;28;20041;-70
2022/11/28 12:15:37;;;;;;;2.05;1.85;;;9.10;99.90;;;;;;5032836;28;20040;-70
2022/11/28 12:18:13;;;;;;;1.48;1.30;;;9.20;99.90;;;;;;5032986;28;20097;-70
2022/11/28 12:20:44;;;;;;;2.40;1.63;;;9.20;99.90;;;;;;5049461;28;20511;-70
2022/11/28 12:23:37;;;;;;;2.20;1.95;;;8.70;99.90;;;;;;5049554;28;20057;-70
2022/11/28 12:26:19;;;;;;;2.40;2.20;;;9.30;99.90;;;;;;5049293;28;20053;-70
2022/11/28 12:29:02;;;;;;;2.15;1.90;;;9.30;99.90;;;;;;5032998;28;20397;-70
2022/11/28 12:31:46;;;;;;;2.08;1.88;;;9.10;99.90;;;;;;5049218;28;20055;-70
2022/11/28 12:34:21;;;;;;;2.28;1.90;;;8.70;99.90;;;;;;5049263;28;20098;-70
2022/11/28 12:37:08;;;;;;;1.30;1.20;;;8.80;99.90;;;;;;5048852;28;20059;-70
2022/11/28 12:39:58;;;;;;;1.30;1.20;;;9.40;99.90;;;;;;5049110;28;20053;-70
2022/11/28 12:43:01;;;;;;;1.88;1.63;;;8.80;99.90;;;;;;5049204;28;20059;-70
2022/11/28 12:45:36;;;;;;;2.00;1.60;;;8.80;99.90;;;;;;5032458;28;20097;-70
2022/11/28 12:48:05;;;;;;;1.83;1.63;;;8.80;99.90;;;;;;5049330;28;20056;-70
2022/11/28 12:50:45;;;;;;;1.70;1.60;;;9.40;99.90;;;;;;5050517;28;20055;-70
2022/11/28 12:53:23;;;;;;;2.00;1.80;;;9.30;99.90;;;;;;5049036;28;20037;-70
2022/11/28 12:56:15;;;;;;;1.70;1.60;;;9.10;99.90;;;;;;5048872;28;20098;-70
2022/11/28 12:58:50;;;;;;;1.70;1.50;;;8.90;99.90;;;;;;5049012;28;20130;-70
2022/11/28 13:01:53;;;;;;;2.60;1.95;;;9.30;99.90;;;;;;5032387;28;20076;-70
2022/11/28 13:04:19;;;;;;;3.10;2.80;;;8.70;99.90;;;;;;5049349;28;20049;-69
2022/11/28 13:06:54;;;;;;;2.55;2.30;;;9.00;99.90;;;;;;5048818;28;20048;-70
2022/11/28 13:09:58;;;;;;;1.73;1.60;;;9.00;99.90;;;;;;5050202;28;20397;-70
2022/11/28 13:12:42;;;;;;;1.75;1.40;;;9.30;99.90;;;;;;5048809;28;20056;-70
2022/11/28 13:15:14;;;;;;;1.90;1.70;;;8.70;99.90;;;;;;5032677;28;20391;-71
2022/11/28 13:18:00;;;;;;;2.03;1.60;;;9.30;99.90;;;;;;5048967;28;20084;-69
2022/11/28 13:20:41;;;;;;;2.20;2.00;;;8.90;99.90;;;;;;5032392;28;20124;-69
2022/11/28 13:23:12;;;;;;;2.40;2.10;;;9.20;99.90;;;;;;5032365;28;20052;-70
2022/11/28 13:26:10;;;;;;;2.50;2.28;;;9.40;99.90;;;;;;5050063;28;20438;-70
2022/11/28 13:28:45;;;;;;;2.00;1.80;;;8.90;99.90;;;;;;5048454;28;20512;-70